createdAt,value
2022-07-29T00:00:58.748Z,17.98
2022-07-29T00:03:25.612Z,18.13
2022-07-29T00:05:55.112Z,18.24
2022-07-29T00:08:21.926Z,18.26
2022-07-29T00:10:48.922Z,18.40
2022-07-29T00:13:15.573Z,18.47
2022-07-29T00:15:42.431Z,18.48
2022-07-29T00:18:09.565Z,18.21
2022-07-29T00:20:36.267Z,17.72
2022-07-29T00:23:03.124Z,17.73
2022-07-29T00:25:31.143Z,17.59
2022-07-29T00:28:00.673Z,17.45
2022-07-29T00:30:27.325Z,17.31
2022-07-29T00:32:54.185Z,17.26
2022-07-29T00:35:39.420Z,17.49
2022-07-29T00:38:06.423Z,17.43
2022-07-29T00:40:33.066Z,17.56
2022-07-29T00:43:00.822Z,17.81
2022-07-29T00:45:27.515Z,17.95
2022-07-29T00:47:54.666Z,18.11
2022-07-29T00:50:22.566Z,18.15
2022-07-29T00:52:49.716Z,18.17
2022-07-29T00:55:16.968Z,18.05
2022-07-29T00:57:44.855Z,17.52
2022-07-29T01:00:13.320Z,17.36
2022-07-29T01:02:40.147Z,17.30
2022-07-29T01:05:07.976Z,17.12
2022-07-29T01:07:38.403Z,17.41
2022-07-29T01:10:06.613Z,17.38
2022-07-29T01:12:34.688Z,17.15
2022-07-29T01:15:03.525Z,17.10
2022-07-29T01:17:33.163Z,17.01
2022-07-29T01:20:03.075Z,17.04
2022-07-29T01:22:36.569Z,16.92
2022-07-29T01:25:22.048Z,16.89
2022-07-29T01:28:02.362Z,16.64
2022-07-29T01:30:31.701Z,16.63
2022-07-29T01:33:01.419Z,16.68
2022-07-29T01:35:49.254Z,16.89
2022-07-29T01:38:22.187Z,17.06
2022-07-29T01:40:52.450Z,17.12
2022-07-29T01:43:24.834Z,16.98
2022-07-29T01:46:01.413Z,16.70
2022-07-29T01:48:28.157Z,16.34
2022-07-29T01:50:57.397Z,16.33
2022-07-29T01:53:37.613Z,16.38
2022-07-29T01:56:07.787Z,16.36
2022-07-29T01:58:36.816Z,16.21
2022-07-29T02:01:03.870Z,16.26
2022-07-29T02:03:32.966Z,16.30
2022-07-29T02:06:01.092Z,16.34
2022-07-29T02:08:29.211Z,16.35
2022-07-29T02:10:56.354Z,16.33
2022-07-29T02:13:24.753Z,16.41
2022-07-29T02:15:52.415Z,16.30
2022-07-29T02:18:19.971Z,16.15
2022-07-29T02:20:49.303Z,16.07
2022-07-29T02:23:20.373Z,16.00
2022-07-29T02:25:49.800Z,15.84
2022-07-29T02:28:18.602Z,15.69
2022-07-29T02:30:46.621Z,15.57
2022-07-29T02:33:15.288Z,15.51
2022-07-29T02:35:42.626Z,15.44
2022-07-29T02:38:30.989Z,15.37
2022-07-29T02:40:58.473Z,15.27
2022-07-29T02:43:27.389Z,15.31
2022-07-29T02:45:56.135Z,15.25
2022-07-29T02:48:28.632Z,15.34
2022-07-29T02:50:59.427Z,15.49
2022-07-29T02:53:26.452Z,15.57
2022-07-29T02:55:57.454Z,15.48
2022-07-29T02:58:32.184Z,15.33
2022-07-29T03:01:02.326Z,15.32
2022-07-29T03:03:31.200Z,15.27
2022-07-29T03:05:59.104Z,15.31
2022-07-29T03:08:25.972Z,15.38
2022-07-29T03:10:53.280Z,15.24
2022-07-29T03:13:20.752Z,15.33
2022-07-29T03:15:48.315Z,15.29
2022-07-29T03:18:15.833Z,15.28
2022-07-29T03:20:43.145Z,15.07
2022-07-29T03:23:10.039Z,15.15
2022-07-29T03:25:37.786Z,15.03
2022-07-29T03:28:05.657Z,14.96
2022-07-29T03:30:32.379Z,14.95
2022-07-29T03:32:59.156Z,14.89
2022-07-29T03:35:25.891Z,14.94
2022-07-29T03:37:52.611Z,14.96
2022-07-29T03:40:22.603Z,14.92
2022-07-29T03:42:50.968Z,14.95
2022-07-29T03:45:19.843Z,14.95
2022-07-29T03:47:50.595Z,14.87
2022-07-29T03:50:20.570Z,14.72
2022-07-29T03:52:47.781Z,14.73
2022-07-29T03:55:15.162Z,14.68
2022-07-29T03:57:42.702Z,14.81
2022-07-29T04:00:09.989Z,14.83
2022-07-29T04:02:37.077Z,14.87
2022-07-29T04:05:03.943Z,14.92
2022-07-29T04:07:30.845Z,14.88
2022-07-29T04:09:57.889Z,14.87
2022-07-29T04:12:24.695Z,14.96
2022-07-29T04:14:51.446Z,14.84
2022-07-29T04:17:18.126Z,14.73
2022-07-29T04:19:44.798Z,14.82
2022-07-29T04:22:11.660Z,14.78
2022-07-29T04:24:42.844Z,14.85
2022-07-29T04:27:13.886Z,14.83
2022-07-29T04:29:57.068Z,14.82
2022-07-29T04:32:25.181Z,14.89
2022-07-29T04:34:51.865Z,14.88
2022-07-29T04:37:18.651Z,14.90
2022-07-29T04:39:45.427Z,14.89
2022-07-29T04:42:12.405Z,14.92
2022-07-29T04:44:39.947Z,14.89
2022-07-29T04:47:10.245Z,14.92
2022-07-29T04:49:39.485Z,14.93
2022-07-29T04:52:06.641Z,14.99
2022-07-29T04:54:33.414Z,14.99
2022-07-29T04:57:02.704Z,15.05
2022-07-29T04:59:29.632Z,15.04
2022-07-29T05:01:56.465Z,15.07
2022-07-29T05:04:24.082Z,15.18
2022-07-29T05:06:50.749Z,15.20
2022-07-29T05:09:17.468Z,15.20
2022-07-29T05:11:44.394Z,15.28
2022-07-29T05:14:11.085Z,15.30
2022-07-29T05:16:37.844Z,15.55
2022-07-29T05:19:04.593Z,15.57
2022-07-29T05:21:31.446Z,15.45
2022-07-29T05:23:58.023Z,15.52
2022-07-29T05:26:24.711Z,15.58
2022-07-29T05:28:51.673Z,15.64
2022-07-29T05:31:18.662Z,15.77
2022-07-29T05:33:45.420Z,15.77
2022-07-29T05:36:12.726Z,15.73
2022-07-29T05:38:39.416Z,15.80
2022-07-29T05:41:06.719Z,15.99
2022-07-29T05:43:33.388Z,15.96
2022-07-29T05:46:01.414Z,16.09
2022-07-29T05:48:28.150Z,16.39
2022-07-29T05:50:55.751Z,16.57
2022-07-29T05:53:23.154Z,16.72
2022-07-29T05:55:50.387Z,16.90
2022-07-29T05:58:17.170Z,17.06
2022-07-29T06:00:45.096Z,17.16
2022-07-29T06:03:12.002Z,17.27
2022-07-29T06:05:38.739Z,17.36
2022-07-29T06:08:08.631Z,17.47
2022-07-29T06:10:36.261Z,17.49
2022-07-29T06:13:03.095Z,17.41
2022-07-29T06:15:29.785Z,17.52
2022-07-29T06:17:58.964Z,17.63
2022-07-29T06:20:31.452Z,17.57
2022-07-29T06:22:58.559Z,17.53
2022-07-29T06:25:25.167Z,17.55
2022-07-29T06:27:51.905Z,17.52
2022-07-29T06:30:18.601Z,17.51
2022-07-29T06:32:45.386Z,17.54
2022-07-29T06:35:39.116Z,17.51
2022-07-29T06:37:59.721Z,17.56
2022-07-29T06:40:45.442Z,17.55
2022-07-29T06:43:12.486Z,17.49
2022-07-29T06:45:42.469Z,17.43
2022-07-29T06:48:09.859Z,17.40
2022-07-29T06:50:37.446Z,17.36
2022-07-29T06:53:04.914Z,17.41
2022-07-29T06:55:32.360Z,17.45
2022-07-29T06:58:00.681Z,17.42
2022-07-29T07:00:28.159Z,17.46
2022-07-29T07:02:55.480Z,17.46
2022-07-29T07:05:22.863Z,17.48
2022-07-29T07:07:49.671Z,17.47
2022-07-29T07:10:16.385Z,17.49
2022-07-29T07:12:43.069Z,17.49
2022-07-29T07:15:10.283Z,17.51
2022-07-29T07:17:38.681Z,17.60
2022-07-29T07:20:06.445Z,17.64
2022-07-29T07:22:38.430Z,17.72
2022-07-29T07:25:06.001Z,17.78
2022-07-29T07:27:32.595Z,17.84
2022-07-29T07:30:02.228Z,17.88
2022-07-29T07:32:29.171Z,17.93
2022-07-29T07:34:59.908Z,17.98
2022-07-29T07:37:28.300Z,17.98
2022-07-29T07:39:55.058Z,17.91
2022-07-29T07:42:22.352Z,17.97
2022-07-29T07:45:12.110Z,17.94
2022-07-29T07:47:38.009Z,18.00
2022-07-29T07:50:09.225Z,18.07
2022-07-29T07:52:46.526Z,18.13
2022-07-29T07:55:14.993Z,18.13
2022-07-29T07:57:41.631Z,18.08
2022-07-29T08:00:09.929Z,18.13
2022-07-29T08:02:40.075Z,18.09
2022-07-29T08:05:08.435Z,18.04
2022-07-29T08:07:39.833Z,18.07
2022-07-29T08:10:06.733Z,18.16
2022-07-29T08:12:33.848Z,18.14
2022-07-29T08:15:00.877Z,18.19
2022-07-29T08:17:28.291Z,18.25
2022-07-29T08:19:55.497Z,18.27
2022-07-29T08:22:22.634Z,18.37
2022-07-29T08:24:56.786Z,18.42
2022-07-29T08:30:12.613Z,18.53
2022-07-29T08:32:55.650Z,18.54
2022-07-29T08:35:23.768Z,18.60
2022-07-29T08:37:51.434Z,18.66
2022-07-29T08:40:18.534Z,18.76
2022-07-29T08:42:45.215Z,18.81
2022-07-29T08:45:13.729Z,18.79
2022-07-29T08:47:44.074Z,18.88
2022-07-29T08:50:11.717Z,18.92
2022-07-29T08:52:39.915Z,19.02
2022-07-29T08:55:07.556Z,19.09
2022-07-29T08:57:35.393Z,19.14
2022-07-29T09:00:11.452Z,19.20
2022-07-29T09:02:44.179Z,19.23
2022-07-29T09:05:13.773Z,19.26
2022-07-29T09:07:40.870Z,19.17
2022-07-29T09:10:08.132Z,19.44
2022-07-29T09:12:38.060Z,19.50
2022-07-29T09:15:05.341Z,19.56
2022-07-29T09:17:45.914Z,19.65
2022-07-29T09:20:14.376Z,19.68
2022-07-29T09:22:42.184Z,19.64
2022-07-29T09:25:09.631Z,19.74
2022-07-29T09:27:36.826Z,19.82
2022-07-29T09:30:08.504Z,19.89
2022-07-29T09:32:54.702Z,19.97
2022-07-29T09:35:22.993Z,20.05
2022-07-29T09:37:50.240Z,20.08
2022-07-29T09:40:18.308Z,20.26
2022-07-29T09:42:48.380Z,20.33
2022-07-29T09:45:27.922Z,20.43
2022-07-29T09:47:58.449Z,20.36
2022-07-29T09:50:36.115Z,20.61
2022-07-29T09:53:04.537Z,20.67
2022-07-29T09:55:31.142Z,20.76
2022-07-29T09:58:28.971Z,20.84
2022-07-29T10:00:56.602Z,21.37
2022-07-29T10:03:24.007Z,22.33
2022-07-29T10:06:07.411Z,23.42
2022-07-29T10:08:35.213Z,24.24
2022-07-29T10:11:11.005Z,25.00
2022-07-29T10:13:38.447Z,25.63
2022-07-29T10:16:05.531Z,26.00
2022-07-29T10:18:33.203Z,26.19
2022-07-29T10:21:02.179Z,26.56
2022-07-29T10:23:46.292Z,26.73
2022-07-29T10:26:14.047Z,27.33
2022-07-29T10:28:40.928Z,27.22
2022-07-29T10:31:13.801Z,27.50
2022-07-29T10:33:56.042Z,27.27
2022-07-29T10:36:34.075Z,26.96
2022-07-29T10:39:13.074Z,26.93
2022-07-29T10:41:59.152Z,27.01
2022-07-29T10:44:28.772Z,27.33
2022-07-29T10:46:55.728Z,27.29
2022-07-29T10:49:27.929Z,27.12
2022-07-29T10:52:02.211Z,27.04
2022-07-29T10:54:36.423Z,26.99
2022-07-29T10:57:25.602Z,27.13
2022-07-29T11:00:16.986Z,27.37
2022-07-29T11:02:45.284Z,27.56
2022-07-29T11:05:20.406Z,27.48
2022-07-29T11:08:06.280Z,27.44
2022-07-29T11:10:33.427Z,26.98
2022-07-29T11:13:00.088Z,26.96
2022-07-29T11:18:17.456Z,27.13
2022-07-29T11:20:50.078Z,26.05
2022-07-29T11:23:22.776Z,26.40
2022-07-29T11:26:08.985Z,26.97
2022-07-29T11:28:37.067Z,27.20
2022-07-29T11:31:05.951Z,27.25
2022-07-29T11:39:36.900Z,26.36
2022-07-29T11:42:32.260Z,26.27
2022-07-29T11:45:42.025Z,26.69
2022-07-29T11:47:55.563Z,26.66
2022-07-29T11:50:31.543Z,26.61
2022-07-29T11:53:02.904Z,26.60
2022-07-29T11:55:38.780Z,26.74
2022-07-29T11:58:27.311Z,26.77
2022-07-29T12:00:55.622Z,26.71
2022-07-29T12:03:35.119Z,26.40
2022-07-29T12:06:23.865Z,26.30
2022-07-29T12:07:01.472Z,27.10
2022-07-29T12:08:50.672Z,25.59
2022-07-29T12:11:22.693Z,25.70
2022-07-29T12:13:51.285Z,25.66
2022-07-29T12:16:25.584Z,25.78
2022-07-29T12:18:59.880Z,25.64
2022-07-29T12:21:28.755Z,25.54
2022-07-29T12:23:57.071Z,25.06
2022-07-29T12:26:29.189Z,24.75
2022-07-29T12:28:55.931Z,24.83
2022-07-29T12:31:43.406Z,24.73
2022-07-29T12:34:13.457Z,24.64
2022-07-29T12:36:40.363Z,24.53
2022-07-29T12:39:08.010Z,24.39
2022-07-29T12:41:35.383Z,24.33
2022-07-29T12:44:02.643Z,24.40
2022-07-29T12:46:29.946Z,24.39
2022-07-29T12:48:57.906Z,24.43
2022-07-29T12:51:35.071Z,24.51
2022-07-29T12:54:06.788Z,24.57
2022-07-29T12:56:42.774Z,24.59
2022-07-29T12:59:18.067Z,24.59
2022-07-29T13:01:45.510Z,24.42
2022-07-29T13:04:13.518Z,24.44
2022-07-29T13:06:42.383Z,24.54
2022-07-29T13:09:15.095Z,24.34
2022-07-29T13:11:48.777Z,24.13
2022-07-29T13:14:33.254Z,24.07
2022-07-29T13:17:07.041Z,23.99
2022-07-29T13:19:44.786Z,24.08
2022-07-29T13:22:12.536Z,24.10
2022-07-29T13:24:51.739Z,24.11
2022-07-29T13:27:21.381Z,24.12
2022-07-29T13:29:48.514Z,24.27
2022-07-29T13:32:15.733Z,24.23
2022-07-29T13:34:42.563Z,24.18
2022-07-29T13:37:09.480Z,24.42
2022-07-29T13:39:38.275Z,24.66
2022-07-29T13:42:10.532Z,24.83
2022-07-29T13:44:37.799Z,24.90
2022-07-29T13:47:04.743Z,25.03
2022-07-29T13:49:32.661Z,24.98
2022-07-29T13:51:59.717Z,24.89
2022-07-29T13:54:27.720Z,24.85
2022-07-29T13:56:54.609Z,24.89
2022-07-29T13:59:21.511Z,25.04
2022-07-29T14:01:49.020Z,25.17
2022-07-29T14:04:16.539Z,25.34
2022-07-29T14:06:43.330Z,25.44
2022-07-29T14:09:10.268Z,25.39
2022-07-29T14:11:39.410Z,25.27
2022-07-29T14:14:07.561Z,25.27
2022-07-29T14:16:38.036Z,25.15
2022-07-29T14:19:07.315Z,25.06
2022-07-29T14:21:34.148Z,25.04
2022-07-29T14:24:02.605Z,25.01
2022-07-29T14:26:40.950Z,25.02
2022-07-29T14:29:13.225Z,24.98
2022-07-29T14:31:40.125Z,25.03
2022-07-29T14:34:06.888Z,25.14
2022-07-29T14:36:33.650Z,25.18
2022-07-29T14:39:01.358Z,25.03
2022-07-29T14:41:29.268Z,25.21
2022-07-29T14:43:56.233Z,25.18
2022-07-29T14:46:23.596Z,25.34
2022-07-29T14:48:50.597Z,25.34
2022-07-29T14:51:17.268Z,25.45
2022-07-29T14:53:44.295Z,25.53
2022-07-29T14:56:35.423Z,25.67
2022-07-29T14:58:58.680Z,25.78
2022-07-29T15:01:25.738Z,25.53
2022-07-29T15:03:57.982Z,25.42
2022-07-29T15:06:27.153Z,25.49
2022-07-29T15:08:54.977Z,25.46
2022-07-29T15:11:21.855Z,25.21
2022-07-29T15:13:49.211Z,25.40
2022-07-29T15:16:15.985Z,25.51
2022-07-29T15:18:43.211Z,25.55
2022-07-29T15:21:10.906Z,25.66
2022-07-29T15:23:37.604Z,25.54
2022-07-29T15:26:04.734Z,25.71
2022-07-29T15:28:32.620Z,25.81
2022-07-29T15:30:59.414Z,25.62
2022-07-29T15:33:27.476Z,25.46
2022-07-29T15:35:55.429Z,25.28
2022-07-29T15:38:28.993Z,25.18
2022-07-29T15:40:55.942Z,25.20
2022-07-29T15:43:22.972Z,25.17
2022-07-29T15:46:22.866Z,25.13
2022-07-29T15:48:51.857Z,25.08
2022-07-29T15:51:18.744Z,25.02
2022-07-29T15:53:53.466Z,24.76
2022-07-29T15:56:21.178Z,24.61
2022-07-29T15:58:49.155Z,24.72
2022-07-29T16:01:17.079Z,24.83
2022-07-29T16:03:46.236Z,24.88
2022-07-29T16:06:13.732Z,24.86
2022-07-29T16:08:40.377Z,24.66
2022-07-29T16:11:07.329Z,24.53
2022-07-29T16:13:34.022Z,24.61
2022-07-29T16:16:02.511Z,24.52
2022-07-29T16:18:30.573Z,24.45
2022-07-29T16:20:58.084Z,24.36
2022-07-29T16:23:24.889Z,24.16
2022-07-29T16:26:00.857Z,24.08
2022-07-29T16:28:30.842Z,23.82
2022-07-29T16:30:57.606Z,23.92
2022-07-29T16:33:24.625Z,23.95
2022-07-29T16:35:51.854Z,23.82
2022-07-29T16:38:19.143Z,23.85
2022-07-29T16:40:47.274Z,23.87
2022-07-29T16:43:14.137Z,23.75
2022-07-29T16:45:46.084Z,23.97
2022-07-29T16:48:18.130Z,24.00
2022-07-29T16:50:45.926Z,23.99
2022-07-29T16:53:13.077Z,24.11
2022-07-29T16:55:42.421Z,24.18
2022-07-29T16:58:09.592Z,24.08
2022-07-29T17:00:36.512Z,24.11
2022-07-29T17:03:03.516Z,23.97
2022-07-29T17:05:52.751Z,23.92
2022-07-29T17:08:20.300Z,23.94
2022-07-29T17:10:47.657Z,23.91
2022-07-29T17:13:14.626Z,23.90
2022-07-29T17:15:43.131Z,23.91
2022-07-29T17:18:12.445Z,23.84
2022-07-29T17:20:41.339Z,23.84
2022-07-29T17:23:08.049Z,23.86
2022-07-29T17:25:36.882Z,23.86
2022-07-29T17:28:03.580Z,23.70
2022-07-29T17:30:30.316Z,23.72
2022-07-29T17:32:58.980Z,23.68
2022-07-29T17:35:44.542Z,23.69
2022-07-29T17:38:11.648Z,23.62
2022-07-29T17:40:38.339Z,23.59
2022-07-29T17:43:05.124Z,23.59
2022-07-29T17:45:50.287Z,23.53
2022-07-29T17:48:18.031Z,23.55
2022-07-29T17:50:44.788Z,23.51
2022-07-29T17:53:15.978Z,23.43
2022-07-29T17:55:48.616Z,23.36
2022-07-29T17:58:15.976Z,23.35
2022-07-29T18:00:43.310Z,23.25
2022-07-29T18:03:10.719Z,23.23
2022-07-29T18:05:38.053Z,23.17
2022-07-29T18:08:05.868Z,23.10
2022-07-29T18:10:32.714Z,23.05
2022-07-29T18:12:59.710Z,23.12
2022-07-29T18:15:26.387Z,23.00
2022-07-29T18:17:57.684Z,22.96
2022-07-29T18:20:25.929Z,22.91
2022-07-29T18:22:52.738Z,22.76
2022-07-29T18:25:19.724Z,22.81
2022-07-29T18:27:46.659Z,22.74
2022-07-29T18:30:18.123Z,22.73
2022-07-29T18:33:04.942Z,22.62
2022-07-29T18:35:32.858Z,22.49
2022-07-29T18:38:02.310Z,22.50
2022-07-29T18:40:29.978Z,22.46
2022-07-29T18:42:56.658Z,22.46
2022-07-29T18:45:28.631Z,22.35
2022-07-29T18:47:56.457Z,22.35
2022-07-29T18:50:29.234Z,22.39
2022-07-29T18:52:58.784Z,22.28
2022-07-29T18:55:26.450Z,22.20
2022-07-29T18:57:55.735Z,22.15
2022-07-29T19:00:24.236Z,22.10
2022-07-29T19:02:51.147Z,22.11
2022-07-29T19:05:20.851Z,22.05
2022-07-29T19:07:47.571Z,21.96
2022-07-29T19:10:15.826Z,21.81
2022-07-29T19:12:42.710Z,21.77
2022-07-29T19:15:10.716Z,21.69
2022-07-29T19:17:38.756Z,21.62
2022-07-29T19:20:07.262Z,21.66
2022-07-29T19:22:34.257Z,21.57
2022-07-29T19:25:01.053Z,21.53
2022-07-29T19:27:27.889Z,21.43
2022-07-29T19:29:58.975Z,21.36
2022-07-29T19:32:26.366Z,21.23
2022-07-29T19:35:11.759Z,21.19
2022-07-29T19:37:38.739Z,21.10
2022-07-29T19:40:07.251Z,20.76
2022-07-29T19:42:34.395Z,20.88
2022-07-29T19:45:01.063Z,20.80
2022-07-29T19:47:28.062Z,20.72
2022-07-29T19:49:54.717Z,20.66
2022-07-29T19:52:21.616Z,20.59
2022-07-29T19:54:48.367Z,20.59
2022-07-29T19:57:15.384Z,20.55
2022-07-29T19:59:42.161Z,20.52
2022-07-29T20:02:12.417Z,20.48
2022-07-29T20:04:39.355Z,20.41
2022-07-29T20:07:06.917Z,20.41
2022-07-29T20:09:33.654Z,20.41
2022-07-29T20:12:00.430Z,20.36
2022-07-29T20:14:27.163Z,20.31
2022-07-29T20:16:54.539Z,20.28
2022-07-29T20:19:21.399Z,20.23
2022-07-29T20:21:48.283Z,20.21
2022-07-29T20:24:15.061Z,20.12
2022-07-29T20:26:42.614Z,20.15
2022-07-29T20:29:09.275Z,20.13
2022-07-29T20:31:36.684Z,20.10
2022-07-29T20:34:04.621Z,20.07
2022-07-29T20:36:31.598Z,20.04
2022-07-29T20:39:00.153Z,19.96
2022-07-29T20:41:27.077Z,19.87
2022-07-29T20:43:53.892Z,19.86
2022-07-29T20:46:21.378Z,19.78
2022-07-29T20:48:48.812Z,19.73
2022-07-29T20:51:15.707Z,19.73
2022-07-29T20:53:42.309Z,19.63
2022-07-29T20:56:09.105Z,19.61
2022-07-29T20:58:37.043Z,19.55
2022-07-29T21:01:05.401Z,19.53
2022-07-29T21:03:32.673Z,19.52
2022-07-29T21:06:00.301Z,19.43
2022-07-29T21:08:26.941Z,19.42
2022-07-29T21:10:54.089Z,19.38
2022-07-29T21:13:20.943Z,19.30
2022-07-29T21:15:49.909Z,19.27
2022-07-29T21:18:37.230Z,19.23
2022-07-29T21:21:04.811Z,19.22
2022-07-29T21:23:31.580Z,19.14
2022-07-29T21:25:58.398Z,19.14
2022-07-29T21:28:29.398Z,19.12
2022-07-29T21:31:00.651Z,19.03
2022-07-29T21:33:30.024Z,18.93
2022-07-29T21:36:26.761Z,18.90
2022-07-29T21:38:44.584Z,18.85
2022-07-29T21:41:12.648Z,18.77
2022-07-29T21:43:42.332Z,18.73
2022-07-29T21:46:09.317Z,18.71
2022-07-29T21:48:37.088Z,18.66
2022-07-29T21:51:06.064Z,18.67
2022-07-29T21:53:32.860Z,18.66
2022-07-29T21:55:59.676Z,18.58
2022-07-29T21:58:26.341Z,18.57
2022-07-29T22:00:54.138Z,18.56
2022-07-29T22:03:20.891Z,18.63
2022-07-29T22:05:47.606Z,18.57
2022-07-29T22:08:14.762Z,18.48
2022-07-29T22:10:42.593Z,18.50
2022-07-29T22:13:10.748Z,18.44
2022-07-29T22:15:37.593Z,18.37
2022-07-29T22:18:04.484Z,18.38
2022-07-29T22:20:31.320Z,18.39
2022-07-29T22:22:58.035Z,18.41
2022-07-29T22:25:24.786Z,18.40
2022-07-29T22:27:51.473Z,18.32
2022-07-29T22:30:18.546Z,18.33
2022-07-29T22:32:45.243Z,18.28
2022-07-29T22:35:12.367Z,18.08
2022-07-29T22:37:39.346Z,18.23
2022-07-29T22:40:06.544Z,18.20
2022-07-29T22:42:33.801Z,18.11
2022-07-29T22:45:00.582Z,18.04
2022-07-29T22:47:46.382Z,17.99
2022-07-29T22:50:14.202Z,17.96
2022-07-29T22:52:40.894Z,17.93
2022-07-29T22:55:07.808Z,17.90
2022-07-29T22:57:34.512Z,17.85
2022-07-29T23:00:02.670Z,17.82
2022-07-29T23:02:29.343Z,17.60
2022-07-29T23:04:57.398Z,17.83
2022-07-29T23:07:24.386Z,17.83
2022-07-29T23:09:51.176Z,17.78
2022-07-29T23:12:17.940Z,17.75
2022-07-29T23:14:44.676Z,17.77
2022-07-29T23:17:11.449Z,17.73
2022-07-29T23:19:38.364Z,17.66
2022-07-29T23:22:05.004Z,17.63
2022-07-29T23:24:31.722Z,17.59
2022-07-29T23:26:58.815Z,17.58
2022-07-29T23:29:26.681Z,17.57
2022-07-29T23:31:53.437Z,17.54
2022-07-29T23:34:20.220Z,17.53
2022-07-29T23:36:46.880Z,17.50
2022-07-29T23:39:13.729Z,17.52
2022-07-29T23:41:40.576Z,17.55
2022-07-29T23:44:07.352Z,17.60
2022-07-29T23:46:34.123Z,17.61
2022-07-29T23:49:01.002Z,17.57
2022-07-29T23:51:29.256Z,17.59
2022-07-29T23:53:56.259Z,17.53
2022-07-29T23:56:23.214Z,17.46
2022-07-29T23:58:51.288Z,17.41
